Time;durP1;ratioP1;P1;durP2;ratioP2;P2;SDS_P1;SDS_P2;PMS_P1;PMS_P2;Temp;Humidity;BMP_temperature;BMP_pressure;BME280_temperature;BME280_humidity;BME280_pressure;Samples;Min_cycle;Max_cycle;Signal;HPM_P1;HPM_P2
2022/06/15 00:01:51;;;;;;;11.40;4.07;;;;;;;;;;4951233;28;20225;-67
2022/06/15 00:04:36;;;;;;;10.57;4.50;;;;;;;;;;4951118;28;20318;-67
2022/06/15 00:07:02;;;;;;;11.37;3.87;;;;;;;;;;4957518;28;20228;-67
2022/06/15 00:09:29;;;;;;;6.80;3.90;;;;;;;;;;4951020;28;20240;-67
2022/06/15 00:11:56;;;;;;;10.57;4.07;;;;;;;;;;4962738;28;20245;-67
2022/06/15 00:14:23;;;;;;;8.40;4.00;;;;;;;;;;4960337;28;20235;-66
2022/06/15 00:16:51;;;;;;;8.10;3.90;;;;;;;;;;4963389;28;24746;-67
2022/06/15 00:19:18;;;;;;;8.17;3.83;;;;;;;;;;4944986;28;20220;-67
2022/06/15 00:21:45;;;;;;;7.83;4.20;;;;;;;;;;4962958;28;20824;-66
2022/06/15 00:24:11;;;;;;;8.70;3.70;;;;;;;;;;4963691;28;20315;-67
2022/06/15 00:26:38;;;;;;;11.67;4.73;;;;;;;;;;4961887;28;20237;-66
2022/06/15 00:29:05;;;;;;;11.80;3.87;;;;;;;;;;4963771;28;20731;-66
2022/06/15 00:31:32;;;;;;;7.80;4.00;;;;;;;;;;4962540;28;20248;-66
2022/06/15 00:33:59;;;;;;;11.10;3.93;;;;;;;;;;4928998;28;20248;-67
2022/06/15 00:36:25;;;;;;;9.10;3.67;;;;;;;;;;4962351;28;26879;-67
2022/06/15 00:38:54;;;;;;;9.00;3.70;;;;;;;;;;4961167;28;20252;-67
2022/06/15 00:41:25;;;;;;;11.53;4.13;;;;;;;;;;4961115;28;20236;-67
2022/06/15 00:43:56;;;;;;;10.00;3.87;;;;;;;;;;4949174;28;20226;-67
2022/06/15 00:46:25;;;;;;;9.37;3.70;;;;;;;;;;4960713;28;20240;-67
2022/06/15 00:48:54;;;;;;;8.57;3.70;;;;;;;;;;4961305;28;20227;-67
2022/06/15 00:51:21;;;;;;;7.90;3.80;;;;;;;;;;4941460;28;20308;-66
2022/06/15 00:53:48;;;;;;;7.47;3.60;;;;;;;;;;4970540;28;20230;-67
2022/06/15 00:56:14;;;;;;;7.30;3.87;;;;;;;;;;4984023;28;20901;-66
2022/06/15 00:58:43;;;;;;;10.13;3.40;;;;;;;;;;4967002;28;20240;-67
2022/06/15 01:01:10;;;;;;;8.77;3.40;;;;;;;;;;4962587;28;20497;-67
2022/06/15 01:03:37;;;;;;;8.93;3.50;;;;;;;;;;4961723;28;20272;-67
2022/06/15 01:06:04;;;;;;;5.37;3.57;;;;;;;;;;4961744;28;20363;-67
2022/06/15 01:08:48;;;;;;;10.20;3.30;;;;;;;;;;4963069;28;20240;-67
2022/06/15 01:11:22;;;;;;;7.53;3.63;;;;;;;;;;4944874;28;20937;-67
2022/06/15 01:13:49;;;;;;;7.53;3.57;;;;;;;;;;4956710;28;20590;-67
2022/06/15 01:16:43;;;;;;;9.43;3.57;;;;;;;;;;4950321;28;20311;-66
2022/06/15 01:19:19;;;;;;;8.20;3.63;;;;;;;;;;4961151;28;20263;-66
2022/06/15 01:21:45;;;;;;;9.17;3.30;;;;;;;;;;4963734;28;20783;-66
2022/06/15 01:24:16;;;;;;;8.73;3.50;;;;;;;;;;4935343;28;20232;-67
2022/06/15 01:26:42;;;;;;;10.53;3.80;;;;;;;;;;4959726;28;20224;-66
2022/06/15 01:29:12;;;;;;;7.07;3.30;;;;;;;;;;4949087;28;20248;-66
2022/06/15 01:31:43;;;;;;;7.93;3.53;;;;;;;;;;4966839;28;20259;-66
2022/06/15 01:34:12;;;;;;;8.20;3.80;;;;;;;;;;4973068;28;20226;-67
2022/06/15 01:36:51;;;;;;;12.90;4.03;;;;;;;;;;4996853;28;20230;-67
2022/06/15 01:39:23;;;;;;;11.30;3.77;;;;;;;;;;4982301;28;20302;-67
2022/06/15 01:41:52;;;;;;;9.77;3.43;;;;;;;;;;4998188;28;20302;-66
2022/06/15 01:44:22;;;;;;;10.23;3.80;;;;;;;;;;4993288;28;20785;-67
2022/06/15 01:46:48;;;;;;;10.10;3.53;;;;;;;;;;4969103;28;20228;-67
2022/06/15 01:49:25;;;;;;;5.93;3.23;;;;;;;;;;4959001;28;20224;-67
2022/06/15 01:52:10;;;;;;;9.37;3.90;;;;;;;;;;4947854;28;20236;-66
2022/06/15 01:54:40;;;;;;;8.03;3.70;;;;;;;;;;4969606;28;20242;-67
2022/06/15 01:57:07;;;;;;;10.60;3.30;;;;;;;;;;4988255;28;29761;-67
2022/06/15 01:59:44;;;;;;;8.40;3.87;;;;;;;;;;4952418;28;20232;-67
2022/06/15 02:02:13;;;;;;;7.80;3.33;;;;;;;;;;4985741;28;20219;-67
2022/06/15 02:04:44;;;;;;;6.90;3.50;;;;;;;;;;4943501;28;20235;-67
2022/06/15 02:07:19;;;;;;;8.03;3.60;;;;;;;;;;4972760;28;20260;-67
2022/06/15 02:09:51;;;;;;;9.27;3.50;;;;;;;;;;4946050;28;20245;-67
2022/06/15 02:12:54;;;;;;;8.57;3.93;;;;;;;;;;4966205;28;20251;-67
2022/06/15 02:15:25;;;;;;;8.60;3.67;;;;;;;;;;4975533;28;20228;-68
2022/06/15 02:17:53;;;;;;;9.53;3.80;;;;;;;;;;4964721;28;20227;-67
2022/06/15 02:20:22;;;;;;;7.97;3.47;;;;;;;;;;4963649;28;20307;-67
2022/06/15 02:22:49;;;;;;;6.60;3.63;;;;;;;;;;4968118;28;20226;-67
2022/06/15 02:25:35;;;;;;;8.23;3.67;;;;;;;;;;4968074;28;20225;-67
2022/06/15 02:28:06;;;;;;;9.60;3.67;;;;;;;;;;4938215;28;20228;-68
2022/06/15 02:30:32;;;;;;;13.57;4.40;;;;;;;;;;4962370;28;20239;-67
2022/06/15 02:33:11;;;;;;;7.30;4.30;;;;;;;;;;4955289;28;20218;-65
2022/06/15 02:35:38;;;;;;;9.73;4.00;;;;;;;;;;4958097;28;20622;-66
2022/06/15 02:38:08;;;;;;;10.97;4.20;;;;;;;;;;4958201;28;21017;-67
2022/06/15 02:40:35;;;;;;;12.83;4.37;;;;;;;;;;4955540;28;20948;-67
2022/06/15 02:43:03;;;;;;;7.20;3.80;;;;;;;;;;4954506;28;20353;-68
2022/06/15 02:45:34;;;;;;;8.27;4.00;;;;;;;;;;4937924;28;20223;-69
2022/06/15 02:48:03;;;;;;;11.20;3.90;;;;;;;;;;4929214;28;21086;-69
2022/06/15 02:50:33;;;;;;;7.90;4.00;;;;;;;;;;4952605;28;20235;-70
2022/06/15 02:53:04;;;;;;;9.57;3.70;;;;;;;;;;4931297;28;20588;-67
2022/06/15 02:55:32;;;;;;;11.53;4.60;;;;;;;;;;4934938;28;25299;-68
2022/06/15 02:58:06;;;;;;;8.60;4.07;;;;;;;;;;4938501;28;21558;-68
2022/06/15 03:00:52;;;;;;;5.97;3.63;;;;;;;;;;4941372;28;20308;-71
2022/06/15 03:03:23;;;;;;;13.70;3.90;;;;;;;;;;4953651;28;20410;-69
2022/06/15 03:06:23;;;;;;;6.20;3.93;;;;;;;;;;4948950;28;20767;-70
2022/06/15 03:08:50;;;;;;;9.00;3.80;;;;;;;;;;4960232;28;20915;-71
2022/06/15 03:11:24;;;;;;;6.17;3.63;;;;;;;;;;4947340;28;20287;-70
2022/06/15 03:13:54;;;;;;;8.80;3.60;;;;;;;;;;4933688;28;20233;-70
2022/06/15 03:16:24;;;;;;;6.33;3.73;;;;;;;;;;4929351;28;20220;-70
2022/06/15 03:18:51;;;;;;;7.77;3.40;;;;;;;;;;4908872;28;33939;-70
2022/06/15 03:21:18;;;;;;;7.07;3.10;;;;;;;;;;4920716;28;20247;-69
2022/06/15 03:23:45;;;;;;;8.10;3.40;;;;;;;;;;4946378;28;21174;-71
2022/06/15 03:26:14;;;;;;;8.10;3.27;;;;;;;;;;4919566;28;20232;-69
2022/06/15 03:28:41;;;;;;;6.50;2.97;;;;;;;;;;4933541;28;20228;-68
2022/06/15 03:31:11;;;;;;;8.13;3.40;;;;;;;;;;4929046;28;20632;-68
2022/06/15 03:33:40;;;;;;;7.07;3.10;;;;;;;;;;4925022;28;20236;-69
2022/06/15 03:36:12;;;;;;;4.87;2.60;;;;;;;;;;4932174;28;31000;-68
2022/06/15 03:38:39;;;;;;;7.17;2.93;;;;;;;;;;4934349;28;20244;-68
2022/06/15 03:41:26;;;;;;;5.93;2.80;;;;;;;;;;4949767;28;20227;-68
2022/06/15 03:43:54;;;;;;;7.37;2.90;;;;;;;;;;4920908;28;30294;-66
2022/06/15 03:46:24;;;;;;;7.67;2.70;;;;;;;;;;4940095;28;20343;-67
2022/06/15 03:48:57;;;;;;;6.60;2.70;;;;;;;;;;4939898;28;27503;-66
2022/06/15 03:51:44;;;;;;;5.00;2.47;;;;;;;;;;4937703;28;20252;-69
2022/06/15 03:54:12;;;;;;;5.77;2.70;;;;;;;;;;4937222;28;20698;-70
2022/06/15 03:56:58;;;;;;;5.37;2.50;;;;;;;;;;4921019;28;20221;-70
2022/06/15 03:59:34;;;;;;;4.37;2.20;;;;;;;;;;4904433;28;20240;-67
2022/06/15 04:02:14;;;;;;;5.07;2.23;;;;;;;;;;4936903;28;20337;-67
2022/06/15 04:04:41;;;;;;;4.33;2.00;;;;;;;;;;4944685;28;20233;-70
2022/06/15 04:08:34;;;;;;;3.37;1.93;;;;;;;;;;4944725;28;20251;-69
2022/06/15 04:09:57;;;;;;;5.13;2.07;;;;;;;;;;4939871;28;20227;-68
2022/06/15 04:12:24;;;;;;;4.30;1.83;;;;;;;;;;4950568;28;20235;-68
2022/06/15 04:14:51;;;;;;;5.27;1.87;;;;;;;;;;4947730;28;20217;-69
2022/06/15 04:17:26;;;;;;;6.20;2.13;;;;;;;;;;4939965;28;20244;-68
2022/06/15 04:23:00;;;;;;;6.27;2.10;;;;;;;;;;4945912;28;20224;-68
2022/06/15 04:25:51;;;;;;;6.43;2.20;;;;;;;;;;4942991;28;20220;-68
2022/06/15 04:28:22;;;;;;;3.83;2.00;;;;;;;;;;4950360;28;21618;-68
2022/06/15 04:30:50;;;;;;;4.13;1.90;;;;;;;;;;4954680;28;20240;-71
2022/06/15 04:33:23;;;;;;;5.67;2.27;;;;;;;;;;4956560;28;21194;-69
2022/06/15 04:35:51;;;;;;;7.43;1.97;;;;;;;;;;4936160;28;218467;-69
2022/06/15 04:38:18;;;;;;;4.73;2.20;;;;;;;;;;4951029;28;20228;-69
2022/06/15 04:40:53;;;;;;;6.27;2.60;;;;;;;;;;4953641;28;20234;-68
2022/06/15 04:43:20;;;;;;;6.53;2.90;;;;;;;;;;4942077;28;21158;-68
2022/06/15 04:45:48;;;;;;;5.40;2.50;;;;;;;;;;4919383;28;20233;-67
2022/06/15 04:48:22;;;;;;;5.50;2.20;;;;;;;;;;4954617;28;28220;-67
2022/06/15 04:51:18;;;;;;;5.07;2.20;;;;;;;;;;4935796;28;20342;-68
2022/06/15 04:53:49;;;;;;;7.43;2.20;;;;;;;;;;4958736;28;20235;-66
2022/06/15 04:56:17;;;;;;;4.20;2.03;;;;;;;;;;4946404;28;20371;-66
2022/06/15 04:58:46;;;;;;;4.23;2.10;;;;;;;;;;4930100;28;20243;-67
2022/06/15 05:01:16;;;;;;;4.57;2.13;;;;;;;;;;4932358;28;21113;-66
2022/06/15 05:03:44;;;;;;;8.70;2.20;;;;;;;;;;4943389;28;29697;-66
2022/06/15 05:06:12;;;;;;;4.00;1.90;;;;;;;;;;4922439;28;27182;-66
2022/06/15 05:08:39;;;;;;;6.43;2.23;;;;;;;;;;4943647;28;20232;-65
2022/06/15 05:11:05;;;;;;;6.60;2.17;;;;;;;;;;4927932;28;20315;-66
2022/06/15 05:13:33;;;;;;;5.70;2.33;;;;;;;;;;4934836;28;20290;-67
2022/06/15 05:16:00;;;;;;;5.73;2.30;;;;;;;;;;4952154;28;22822;-66
2022/06/15 05:18:28;;;;;;;5.80;2.57;;;;;;;;;;4939566;28;20244;-66
2022/06/15 05:21:00;;;;;;;6.97;2.10;;;;;;;;;;4909229;28;20224;-66
2022/06/15 05:23:28;;;;;;;4.10;2.13;;;;;;;;;;4923569;28;20239;-66
2022/06/15 05:26:13;;;;;;;6.10;2.13;;;;;;;;;;4944840;28;20254;-65
2022/06/15 05:28:58;;;;;;;7.67;2.30;;;;;;;;;;4933778;28;20866;-66
2022/06/15 05:31:25;;;;;;;4.90;1.93;;;;;;;;;;4931947;28;20233;-65
2022/06/15 05:33:55;;;;;;;5.37;2.10;;;;;;;;;;4928845;28;20224;-65
2022/06/15 05:36:24;;;;;;;4.07;1.67;;;;;;;;;;4927492;28;20299;-64
2022/06/15 05:38:51;;;;;;;4.30;1.70;;;;;;;;;;4929504;28;20240;-65
2022/06/15 05:41:18;;;;;;;5.17;1.83;;;;;;;;;;4936699;28;20798;-67
2022/06/15 05:43:50;;;;;;;5.37;1.90;;;;;;;;;;4928694;28;20562;-68
2022/06/15 05:46:20;;;;;;;5.23;1.70;;;;;;;;;;4936970;28;20224;-68
2022/06/15 05:48:48;;;;;;;7.67;2.20;;;;;;;;;;4929546;28;20238;-68
2022/06/15 05:51:19;;;;;;;4.13;1.60;;;;;;;;;;4926773;28;20711;-68
2022/06/15 05:54:05;;;;;;;4.07;1.70;;;;;;;;;;4952946;28;20246;-68
2022/06/15 05:56:33;;;;;;;2.80;1.73;;;;;;;;;;4936440;28;20248;-66
2022/06/15 05:59:18;;;;;;;4.40;1.47;;;;;;;;;;4921297;28;20213;-68
2022/06/15 06:01:44;;;;;;;4.57;1.50;;;;;;;;;;4966431;28;22701;-69
2022/06/15 06:04:15;;;;;;;4.10;1.50;;;;;;;;;;4958061;28;20302;-66
2022/06/15 06:06:42;;;;;;;4.50;1.80;;;;;;;;;;4955995;28;20298;-68
2022/06/15 06:09:10;;;;;;;3.50;1.60;;;;;;;;;;4941894;28;20236;-68
2022/06/15 06:11:37;;;;;;;3.83;1.60;;;;;;;;;;4959721;28;20228;-68
2022/06/15 06:14:04;;;;;;;3.57;1.20;;;;;;;;;;4922074;28;23163;-68
2022/06/15 06:16:31;;;;;;;5.47;1.40;;;;;;;;;;4945735;28;42147;-68
2022/06/15 06:18:58;;;;;;;5.00;1.43;;;;;;;;;;4932399;28;20315;-67
2022/06/15 06:21:25;;;;;;;3.23;1.27;;;;;;;;;;4936013;28;220370;-71
2022/06/15 06:23:51;;;;;;;2.17;1.10;;;;;;;;;;4929189;28;20232;-68
2022/06/15 06:26:19;;;;;;;5.03;1.33;;;;;;;;;;4949268;28;20764;-66
2022/06/15 06:28:46;;;;;;;3.50;1.33;;;;;;;;;;4944337;28;20640;-66
2022/06/15 06:31:13;;;;;;;2.37;1.10;;;;;;;;;;4959726;28;20727;-70
2022/06/15 06:33:39;;;;;;;2.47;1.10;;;;;;;;;;4949111;28;20231;-67
2022/06/15 06:36:07;;;;;;;4.60;0.90;;;;;;;;;;4940417;28;20331;-67
2022/06/15 06:38:34;;;;;;;2.17;0.80;;;;;;;;;;4937233;28;24426;-66
2022/06/15 06:41:01;;;;;;;3.70;1.10;;;;;;;;;;4952150;28;20231;-67
2022/06/15 06:43:28;;;;;;;2.30;1.00;;;;;;;;;;4965611;28;20235;-66
2022/06/15 06:45:55;;;;;;;5.13;1.30;;;;;;;;;;4967901;28;20250;-67
2022/06/15 06:48:21;;;;;;;3.03;1.17;;;;;;;;;;4925075;28;20229;-67
2022/06/15 06:50:48;;;;;;;4.67;1.37;;;;;;;;;;4964919;28;20228;-68
2022/06/15 06:53:15;;;;;;;2.57;1.17;;;;;;;;;;4950738;28;26100;-70
2022/06/15 06:55:42;;;;;;;2.20;1.00;;;;;;;;;;4959655;28;20237;-67
2022/06/15 06:58:09;;;;;;;2.57;1.03;;;;;;;;;;4956541;28;24110;-69
2022/06/15 07:00:35;;;;;;;2.70;0.97;;;;;;;;;;4952789;28;20379;-67
2022/06/15 07:03:03;;;;;;;3.90;1.10;;;;;;;;;;4959908;28;20229;-68
2022/06/15 07:05:32;;;;;;;2.33;1.00;;;;;;;;;;4950065;28;20388;-67
2022/06/15 07:07:59;;;;;;;2.60;0.80;;;;;;;;;;4964148;28;20278;-67
2022/06/15 07:10:26;;;;;;;3.10;1.33;;;;;;;;;;4933767;28;20592;-66
2022/06/15 07:12:53;;;;;;;2.93;1.00;;;;;;;;;;4936147;28;20261;-67
2022/06/15 07:15:20;;;;;;;2.70;1.00;;;;;;;;;;4928243;28;20237;-67
2022/06/15 07:17:49;;;;;;;2.70;1.03;;;;;;;;;;4954331;28;20275;-66
2022/06/15 07:20:16;;;;;;;2.50;1.10;;;;;;;;;;4956317;28;20224;-67
2022/06/15 07:22:43;;;;;;;3.13;1.10;;;;;;;;;;4952577;28;21301;-67
2022/06/15 07:25:12;;;;;;;1.77;1.10;;;;;;;;;;4934989;28;20566;-69
2022/06/15 07:27:39;;;;;;;2.83;1.07;;;;;;;;;;4953271;28;20250;-66
2022/06/15 07:30:06;;;;;;;1.50;0.90;;;;;;;;;;4944184;28;20224;-66
2022/06/15 07:32:33;;;;;;;5.13;1.53;;;;;;;;;;4926205;28;20252;-67
2022/06/15 07:35:00;;;;;;;2.17;1.10;;;;;;;;;;4954772;28;20228;-67
2022/06/15 07:37:26;;;;;;;3.77;0.90;;;;;;;;;;4958371;28;21645;-66
2022/06/15 07:40:13;;;;;;;3.77;1.00;;;;;;;;;;4950803;28;20240;-67
2022/06/15 07:42:40;;;;;;;1.23;0.87;;;;;;;;;;4956023;28;20240;-65
2022/06/15 07:45:08;;;;;;;2.87;1.00;;;;;;;;;;4947863;28;20437;-64
2022/06/15 07:50:21;;;;;;;3.17;1.10;;;;;;;;;;4949510;28;20256;-66
2022/06/15 07:53:04;;;;;;;2.73;1.27;;;;;;;;;;4960149;28;38580;-66
2022/06/15 07:55:33;;;;;;;1.73;0.90;;;;;;;;;;4956831;28;20225;-67
2022/06/15 07:58:00;;;;;;;2.70;0.83;;;;;;;;;;4949061;28;20235;-66
2022/06/15 08:00:27;;;;;;;1.03;0.60;;;;;;;;;;4951983;28;20605;-67
2022/06/15 08:03:12;;;;;;;5.33;1.00;;;;;;;;;;4958043;28;20286;-67
2022/06/15 08:05:40;;;;;;;2.03;1.00;;;;;;;;;;4953087;28;20246;-67
2022/06/15 08:08:07;;;;;;;2.27;0.90;;;;;;;;;;4948165;28;20227;-68
2022/06/15 08:10:34;;;;;;;3.13;0.80;;;;;;;;;;4946905;28;20306;-67
2022/06/15 08:13:01;;;;;;;2.07;0.80;;;;;;;;;;4938147;28;20235;-67
2022/06/15 08:15:29;;;;;;;2.53;0.77;;;;;;;;;;4963097;28;20344;-66
2022/06/15 08:17:57;;;;;;;1.40;0.70;;;;;;;;;;4960327;28;20232;-67
2022/06/15 08:20:24;;;;;;;2.50;0.90;;;;;;;;;;4946990;28;20237;-67
2022/06/15 08:23:11;;;;;;;2.30;0.70;;;;;;;;;;4960816;28;20684;-69
2022/06/15 08:25:40;;;;;;;3.30;0.80;;;;;;;;;;4962331;28;20244;-68
2022/06/15 08:28:25;;;;;;;1.63;0.90;;;;;;;;;;4959812;28;20684;-67
2022/06/15 08:30:52;;;;;;;1.97;1.00;;;;;;;;;;4962540;28;20229;-66
2022/06/15 08:33:19;;;;;;;1.73;0.60;;;;;;;;;;4953384;28;217422;-68
2022/06/15 08:35:47;;;;;;;1.40;0.80;;;;;;;;;;4963069;28;20232;-68
2022/06/15 08:38:15;;;;;;;1.60;0.87;;;;;;;;;;4946275;28;20600;-69
2022/06/15 08:40:52;;;;;;;2.23;0.87;;;;;;;;;;4961583;28;20983;-67
2022/06/15 08:43:23;;;;;;;1.13;0.70;;;;;;;;;;4961668;28;43573;-67
2022/06/15 08:45:51;;;;;;;2.50;0.70;;;;;;;;;;4952767;28;20229;-68
2022/06/15 08:48:24;;;;;;;2.70;0.70;;;;;;;;;;4942165;28;20228;-68
2022/06/15 08:51:08;;;;;;;4.30;0.80;;;;;;;;;;4954720;28;20663;-69
2022/06/15 08:53:54;;;;;;;2.40;0.80;;;;;;;;;;4946815;28;20263;-71
2022/06/15 08:56:24;;;;;;;2.13;0.73;;;;;;;;;;4956443;28;20220;-69
2022/06/15 08:58:57;;;;;;;2.33;0.80;;;;;;;;;;4953823;28;20611;-69
2022/06/15 09:01:44;;;;;;;5.10;0.93;;;;;;;;;;4948952;28;20248;-69
2022/06/15 09:04:23;;;;;;;2.17;0.90;;;;;;;;;;4951127;28;20228;-69
2022/06/15 09:06:57;;;;;;;2.10;0.70;;;;;;;;;;4952345;28;20315;-67
2022/06/15 09:09:50;;;;;;;2.97;0.73;;;;;;;;;;4932009;28;45262;-67
2022/06/15 09:15:24;;;;;;;3.43;0.80;;;;;;;;;;4935935;28;20225;-67
2022/06/15 09:17:51;;;;;;;2.90;1.00;;;;;;;;;;4943104;28;30289;-68
2022/06/15 09:20:24;;;;;;;2.17;0.87;;;;;;;;;;4923987;28;20672;-67
2022/06/15 09:23:02;;;;;;;2.00;0.90;;;;;;;;;;4949338;28;20319;-67
2022/06/15 09:25:30;;;;;;;3.30;1.20;;;;;;;;;;4928878;28;20323;-69
2022/06/15 09:28:23;;;;;;;1.93;0.70;;;;;;;;;;4945444;28;20229;-67
2022/06/15 09:30:53;;;;;;;4.00;0.90;;;;;;;;;;4917970;28;20707;-68
2022/06/15 09:33:22;;;;;;;2.57;0.77;;;;;;;;;;4933740;28;20277;-68
2022/06/15 09:35:53;;;;;;;2.37;1.20;;;;;;;;;;4930418;28;20240;-66
2022/06/15 09:38:20;;;;;;;2.23;0.80;;;;;;;;;;4932437;28;20227;-67
2022/06/15 09:40:49;;;;;;;1.90;0.80;;;;;;;;;;4933369;28;20236;-68
2022/06/15 09:43:19;;;;;;;1.53;0.90;;;;;;;;;;4958158;28;35533;-67
2022/06/15 09:45:49;;;;;;;2.40;0.80;;;;;;;;;;4932888;28;27479;-66
2022/06/15 09:48:32;;;;;;;5.77;1.00;;;;;;;;;;4943475;28;20971;-68
2022/06/15 09:51:11;;;;;;;3.03;0.80;;;;;;;;;;4935203;28;20275;-69
2022/06/15 09:53:50;;;;;;;2.07;0.80;;;;;;;;;;4938882;28;22868;-69
2022/06/15 09:56:18;;;;;;;4.53;1.03;;;;;;;;;;4930008;28;25962;-67
2022/06/15 09:58:56;;;;;;;2.27;0.70;;;;;;;;;;4928781;28;20749;-67
2022/06/15 10:01:26;;;;;;;1.63;0.70;;;;;;;;;;4929877;28;20243;-66
2022/06/15 10:03:53;;;;;;;2.00;0.70;;;;;;;;;;4914400;28;21114;-65
2022/06/15 10:06:24;;;;;;;2.40;0.80;;;;;;;;;;4945385;28;20247;-69
2022/06/15 10:08:52;;;;;;;1.70;0.60;;;;;;;;;;4922966;28;20968;-68
2022/06/15 10:11:21;;;;;;;2.50;0.97;;;;;;;;;;4933812;28;20228;-69
2022/06/15 10:13:48;;;;;;;1.60;0.90;;;;;;;;;;4960139;28;20789;-67
2022/06/15 10:16:14;;;;;;;1.27;0.77;;;;;;;;;;4951862;28;20298;-67
2022/06/15 10:18:46;;;;;;;2.30;0.80;;;;;;;;;;4952164;28;20268;-66
2022/06/15 10:21:13;;;;;;;1.40;0.60;;;;;;;;;;4942937;28;20435;-68
2022/06/15 10:23:50;;;;;;;2.47;0.80;;;;;;;;;;4956922;28;20233;-67
2022/06/15 10:26:25;;;;;;;1.43;0.80;;;;;;;;;;4941886;28;39054;-68
2022/06/15 10:28:52;;;;;;;2.90;0.93;;;;;;;;;;4938290;28;20235;-69
2022/06/15 10:31:23;;;;;;;3.53;1.03;;;;;;;;;;4951046;28;20228;-67
2022/06/15 10:33:51;;;;;;;1.53;0.90;;;;;;;;;;4953141;28;20253;-66
2022/06/15 10:36:22;;;;;;;2.87;0.90;;;;;;;;;;4950140;28;20233;-68
2022/06/15 10:38:59;;;;;;;23.57;2.23;;;;;;;;;;4948749;28;20241;-68
2022/06/15 10:41:46;;;;;;;2.53;0.90;;;;;;;;;;4957012;28;20306;-67
2022/06/15 10:44:13;;;;;;;2.97;1.10;;;;;;;;;;4951009;28;20276;-66
2022/06/15 10:46:53;;;;;;;2.23;0.80;;;;;;;;;;4959378;28;20241;-67
2022/06/15 10:49:20;;;;;;;2.47;0.60;;;;;;;;;;4943913;28;20367;-71
2022/06/15 10:51:48;;;;;;;1.53;0.83;;;;;;;;;;4938169;28;23088;-68
2022/06/15 10:54:21;;;;;;;3.27;0.90;;;;;;;;;;4949367;28;20247;-69
2022/06/15 11:02:50;;;;;;;2.50;0.90;;;;;;;;;;4950764;28;20608;-69
2022/06/15 11:05:18;;;;;;;3.13;0.90;;;;;;;;;;4950432;28;21730;-72
2022/06/15 11:07:44;;;;;;;2.77;1.10;;;;;;;;;;4955304;28;56595;-67
2022/06/15 11:10:35;;;;;;;2.30;0.90;;;;;;;;;;4955782;28;20253;-67
2022/06/15 11:13:25;;;;;;;4.97;0.80;;;;;;;;;;4943715;28;23054;-69
2022/06/15 11:18:57;;;;;;;2.20;0.90;;;;;;;;;;4950808;28;21944;-70
2022/06/15 11:21:25;;;;;;;3.57;0.93;;;;;;;;;;4952433;28;20231;-67
2022/06/15 11:23:56;;;;;;;2.10;0.90;;;;;;;;;;4941097;28;20234;-69
2022/06/15 11:29:24;;;;;;;4.83;0.90;;;;;;;;;;4949211;28;20248;-68
2022/06/15 11:32:19;;;;;;;3.60;0.77;;;;;;;;;;4944401;28;20611;-68
2022/06/15 11:34:51;;;;;;;1.67;0.77;;;;;;;;;;4915940;28;20285;-69
2022/06/15 11:37:20;;;;;;;2.47;1.00;;;;;;;;;;4954671;28;20332;-68
2022/06/15 11:40:12;;;;;;;3.37;0.93;;;;;;;;;;4953449;28;20255;-69
2022/06/15 11:42:38;;;;;;;2.00;0.70;;;;;;;;;;4952614;28;21227;-66
2022/06/15 11:45:15;;;;;;;3.57;0.80;;;;;;;;;;4952424;28;20239;-66
2022/06/15 11:47:42;;;;;;;3.00;1.20;;;;;;;;;;4962232;28;20229;-66
2022/06/15 11:50:27;;;;;;;4.53;1.00;;;;;;;;;;4954078;28;20239;-67
2022/06/15 11:52:57;;;;;;;7.53;0.93;;;;;;;;;;4944822;28;25371;-66
2022/06/15 11:55:24;;;;;;;3.93;1.00;;;;;;;;;;4946697;28;20311;-68
2022/06/15 11:58:09;;;;;;;5.93;1.30;;;;;;;;;;4947762;28;20283;-68
2022/06/15 12:00:39;;;;;;;2.47;0.90;;;;;;;;;;4942197;28;20272;-71
2022/06/15 12:03:41;;;;;;;2.00;0.80;;;;;;;;;;4947109;28;20256;-67
2022/06/15 12:06:27;;;;;;;2.33;0.97;;;;;;;;;;4911263;28;20232;-70
2022/06/15 12:09:03;;;;;;;3.07;1.17;;;;;;;;;;4944152;28;20237;-67
2022/06/15 12:14:42;;;;;;;2.27;1.00;;;;;;;;;;4951588;28;20239;-69
2022/06/15 12:17:09;;;;;;;3.80;0.90;;;;;;;;;;4945219;28;20221;-69
2022/06/15 12:19:41;;;;;;;4.20;1.13;;;;;;;;;;4948413;28;20450;-68
2022/06/15 12:22:21;;;;;;;7.67;1.20;;;;;;;;;;4946922;28;20312;-68
2022/06/15 12:24:53;;;;;;;9.57;1.10;;;;;;;;;;4939565;28;20237;-68
2022/06/15 12:27:23;;;;;;;2.57;0.90;;;;;;;;;;4938777;28;26067;-67
2022/06/15 12:30:31;;;;;;;2.40;0.80;;;;;;;;;;4954052;28;33732;-69
2022/06/15 12:33:01;;;;;;;2.70;0.80;;;;;;;;;;4917489;28;54932;-71
2022/06/15 12:35:28;;;;;;;2.47;1.03;;;;;;;;;;4957383;28;20271;-70
2022/06/15 12:38:06;;;;;;;2.90;1.10;;;;;;;;;;4945876;28;22951;-68
2022/06/15 12:40:35;;;;;;;2.37;0.77;;;;;;;;;;4956014;28;20303;-68
2022/06/15 12:43:16;;;;;;;3.03;1.10;;;;;;;;;;4952382;28;31837;-67
2022/06/15 12:45:44;;;;;;;2.37;1.00;;;;;;;;;;4951050;28;20303;-68
2022/06/15 12:48:37;;;;;;;3.13;1.00;;;;;;;;;;4950847;28;20237;-68
2022/06/15 12:51:09;;;;;;;1.87;0.70;;;;;;;;;;4957995;28;20314;-67
2022/06/15 12:53:44;;;;;;;2.53;0.60;;;;;;;;;;4940620;28;27280;-66
2022/06/15 12:56:32;;;;;;;2.27;0.60;;;;;;;;;;4943887;28;20320;-70
2022/06/15 12:59:19;;;;;;;1.37;0.80;;;;;;;;;;4943782;28;20225;-71
2022/06/15 13:01:47;;;;;;;2.67;0.90;;;;;;;;;;4955014;28;20235;-67
2022/06/15 13:04:31;;;;;;;2.83;0.80;;;;;;;;;;4999700;28;20229;-67
2022/06/15 13:07:19;;;;;;;5.33;0.90;;;;;;;;;;4984097;28;20748;-67
2022/06/15 13:10:04;;;;;;;2.63;0.70;;;;;;;;;;4998584;28;20228;-69
2022/06/15 13:12:41;;;;;;;4.30;0.90;;;;;;;;;;4982925;28;20238;-70
2022/06/15 13:15:26;;;;;;;2.83;0.93;;;;;;;;;;4947496;28;20649;-68
2022/06/15 13:18:08;;;;;;;1.93;1.00;;;;;;;;;;4942863;28;52428;-68
2022/06/15 13:20:47;;;;;;;3.40;0.97;;;;;;;;;;4958560;28;20925;-68
2022/06/15 13:23:23;;;;;;;1.60;0.93;;;;;;;;;;4953956;28;25500;-67
2022/06/15 13:26:00;;;;;;;3.13;1.07;;;;;;;;;;4928557;28;23298;-70
2022/06/15 13:28:28;;;;;;;1.97;0.77;;;;;;;;;;4954092;28;20287;-67
2022/06/15 13:30:58;;;;;;;2.10;0.87;;;;;;;;;;4928261;28;27131;-69
2022/06/15 13:33:43;;;;;;;2.43;0.90;;;;;;;;;;4938872;28;20600;-67
2022/06/15 13:36:12;;;;;;;1.33;0.80;;;;;;;;;;4958690;28;20226;-69
2022/06/15 13:38:40;;;;;;;3.53;1.17;;;;;;;;;;4961863;28;20277;-69
2022/06/15 13:41:08;;;;;;;4.93;1.10;;;;;;;;;;4946994;28;24934;-69
2022/06/15 13:43:43;;;;;;;1.93;0.80;;;;;;;;;;4946334;28;20242;-68
2022/06/15 13:46:26;;;;;;;1.70;0.87;;;;;;;;;;4951294;28;20219;-69
2022/06/15 13:48:54;;;;;;;5.63;0.97;;;;;;;;;;4959614;28;20325;-69
2022/06/15 13:51:25;;;;;;;3.30;1.20;;;;;;;;;;4942795;28;20308;-69
2022/06/15 13:53:54;;;;;;;3.03;1.00;;;;;;;;;;4935739;28;20315;-70
2022/06/15 13:56:40;;;;;;;8.93;1.47;;;;;;;;;;4956418;28;28926;-69
2022/06/15 13:59:25;;;;;;;6.00;1.47;;;;;;;;;;4959065;28;20228;-69
2022/06/15 14:01:51;;;;;;;3.47;0.90;;;;;;;;;;4956243;28;20758;-69
2022/06/15 14:04:24;;;;;;;3.33;1.20;;;;;;;;;;4952084;28;20312;-70
2022/06/15 14:07:12;;;;;;;3.03;1.10;;;;;;;;;;4938747;28;20234;-72
2022/06/15 14:09:39;;;;;;;4.87;1.23;;;;;;;;;;4956734;28;20603;-70
2022/06/15 14:12:24;;;;;;;4.17;1.10;;;;;;;;;;4956273;28;20279;-71
2022/06/15 14:14:51;;;;;;;2.50;1.00;;;;;;;;;;4959491;28;20236;-70
2022/06/15 14:17:18;;;;;;;3.57;1.20;;;;;;;;;;4976627;28;20309;-70
2022/06/15 14:20:13;;;;;;;4.07;1.30;;;;;;;;;;4954603;28;20360;-70
2022/06/15 14:22:58;;;;;;;3.57;1.13;;;;;;;;;;4958717;28;22232;-70
2022/06/15 14:25:49;;;;;;;4.87;1.40;;;;;;;;;;4960669;28;20242;-70
2022/06/15 14:28:33;;;;;;;4.27;0.90;;;;;;;;;;4961972;28;20235;-71
2022/06/15 14:31:04;;;;;;;6.77;1.30;;;;;;;;;;4960161;28;20659;-70
2022/06/15 14:33:53;;;;;;;6.53;1.47;;;;;;;;;;4949811;28;20691;-71
2022/06/15 14:36:20;;;;;;;3.53;1.43;;;;;;;;;;4954038;28;20230;-70
2022/06/15 14:38:54;;;;;;;2.50;1.17;;;;;;;;;;4950152;28;218584;-69
2022/06/15 14:41:22;;;;;;;4.33;1.10;;;;;;;;;;4932082;28;20928;-67
2022/06/15 14:43:51;;;;;;;3.13;1.20;;;;;;;;;;4929995;28;20244;-69
2022/06/15 14:46:20;;;;;;;3.13;0.90;;;;;;;;;;4930965;28;20223;-68
2022/06/15 14:48:48;;;;;;;5.57;0.90;;;;;;;;;;4942417;28;217504;-67
2022/06/15 14:51:27;;;;;;;3.63;1.00;;;;;;;;;;4917008;28;27242;-66
2022/06/15 14:53:54;;;;;;;2.77;1.20;;;;;;;;;;4906336;28;218149;-67
2022/06/15 14:56:22;;;;;;;3.70;1.20;;;;;;;;;;4947026;28;20768;-66
2022/06/15 14:59:08;;;;;;;2.33;0.90;;;;;;;;;;4939245;28;20227;-70
2022/06/15 15:01:36;;;;;;;2.77;1.00;;;;;;;;;;4940880;28;34579;-72
2022/06/15 15:04:14;;;;;;;5.00;1.10;;;;;;;;;;4940576;28;226973;-68
2022/06/15 15:06:51;;;;;;;3.80;1.30;;;;;;;;;;4935015;28;20322;-68
2022/06/15 15:09:19;;;;;;;7.90;1.00;;;;;;;;;;4930768;28;41869;-68
2022/06/15 15:11:47;;;;;;;2.27;1.30;;;;;;;;;;4940203;28;20244;-67
2022/06/15 15:14:15;;;;;;;4.33;1.10;;;;;;;;;;4946892;28;20244;-68
2022/06/15 15:16:45;;;;;;;3.10;1.10;;;;;;;;;;4937154;28;32792;-68
2022/06/15 15:19:25;;;;;;;2.90;0.70;;;;;;;;;;4956879;28;20227;-68
2022/06/15 15:22:19;;;;;;;2.83;0.93;;;;;;;;;;4948457;28;20223;-67
2022/06/15 15:24:50;;;;;;;2.43;1.00;;;;;;;;;;4930393;28;20236;-72
2022/06/15 15:36:14;;;;;;;8.80;1.20;;;;;;;;;;4961164;28;20259;-69
2022/06/15 15:38:41;;;;;;;6.10;1.43;;;;;;;;;;4926553;28;69069;-68
2022/06/15 15:41:09;;;;;;;4.43;1.40;;;;;;;;;;4957901;28;20231;-68
2022/06/15 15:43:38;;;;;;;4.77;1.40;;;;;;;;;;4952049;28;20307;-69
2022/06/15 15:46:07;;;;;;;2.53;1.10;;;;;;;;;;4957065;28;20598;-68